Time;durP1;ratioP1;P1;durP2;ratioP2;P2;SDS_P1;SDS_P2;PMS_P1;PMS_P2;Temp;Humidity;BMP_temperature;BMP_pressure;BME280_temperature;BME280_humidity;BME280_pressure;Samples;Min_cycle;Max_cycle;Signal;HPM_P1;HPM_P2
2023/10/03 00:01:35;;;;;;;37.07;17.10;;;19.20;1.00;;;;;;5055963;28;20413;-79
2023/10/03 00:04:02;;;;;;;34.63;17.80;;;19.20;1.00;;;;;;5056024;28;20448;-79
2023/10/03 00:06:28;;;;;;;36.30;17.30;;;19.30;1.00;;;;;;5056074;28;20424;-80
2023/10/03 00:08:54;;;;;;;32.20;16.40;;;19.30;99.90;;;;;;5056364;28;21101;-80
2023/10/03 00:11:22;;;;;;;32.87;16.90;;;19.40;99.90;;;;;;5053407;28;20269;-79
2023/10/03 00:13:47;;;;;;;31.80;16.80;;;19.30;99.90;;;;;;5055312;28;20436;-80
2023/10/03 00:16:15;;;;;;;34.67;17.20;;;19.40;99.90;;;;;;5055999;28;20428;-80
2023/10/03 00:18:41;;;;;;;36.13;16.23;;;19.40;99.90;;;;;;5055717;28;20417;-80
2023/10/03 00:21:07;;;;;;;30.47;15.97;;;19.40;99.90;;;;;;5055990;28;20439;-80
2023/10/03 00:23:33;;;;;;;29.33;15.87;;;19.50;99.90;;;;;;5055373;28;20257;-79
2023/10/03 00:26:01;;;;;;;33.83;17.30;;;19.50;99.90;;;;;;5044187;28;20185;-80
2023/10/03 00:28:29;;;;;;;37.73;17.70;;;19.60;57.00;;;;;;5053091;28;20667;-80
2023/10/03 00:30:55;;;;;;;32.20;15.50;;;19.60;1.00;;;;;;5055553;28;20545;-80
2023/10/03 00:33:25;;;;;;;31.33;16.00;;;19.60;1.00;;;;;;5055115;28;20467;-79
2023/10/03 00:35:53;;;;;;;36.77;16.87;;;19.70;1.00;;;;;;5055936;28;20178;-79
2023/10/03 00:38:19;;;;;;;32.30;16.37;;;19.70;1.00;;;;;;5055912;28;20655;-80
2023/10/03 00:40:49;;;;;;;32.80;15.57;;;19.70;1.00;;;;;;5055839;28;20416;-80
2023/10/03 00:43:15;;;;;;;31.07;16.70;;;19.80;1.00;;;;;;5055411;28;20208;-80
2023/10/03 00:45:42;;;;;;;27.23;14.87;;;19.80;1.00;;;;;;5052471;28;20494;-80
2023/10/03 00:48:08;;;;;;;28.40;15.33;;;19.80;1.00;;;;;;5037553;28;20428;-79
2023/10/03 00:50:35;;;;;;;34.33;17.10;;;19.80;99.90;;;;;;5055645;28;20452;-80
2023/10/03 00:53:06;;;;;;;35.20;16.50;;;19.80;1.00;;;;;;5037229;28;20479;-80
2023/10/03 00:55:33;;;;;;;36.63;17.80;;;19.80;1.00;;;;;;5052717;28;20468;-79
2023/10/03 00:58:07;;;;;;;30.13;16.10;;;19.80;1.00;;;;;;5055049;28;20942;-80
2023/10/03 01:00:41;;;;;;;36.23;15.93;;;19.80;1.00;;;;;;5055300;28;20930;-80
2023/10/03 01:03:24;;;;;;;32.53;16.17;;;19.80;1.00;;;;;;5054840;28;20436;-79
2023/10/03 01:05:53;;;;;;;31.93;15.87;;;19.90;1.00;;;;;;5055720;28;20420;-79
2023/10/03 01:08:19;;;;;;;25.47;13.50;;;19.90;1.00;;;;;;5055574;28;20427;-80
2023/10/03 01:10:45;;;;;;;29.30;13.80;;;19.90;1.00;;;;;;5055530;28;20457;-80
2023/10/03 01:13:13;;;;;;;26.03;15.43;;;19.90;99.90;;;;;;5052242;28;20436;-78
2023/10/03 01:15:40;;;;;;;27.07;13.20;;;20.00;1.00;;;;;;5051473;28;20669;-80
2023/10/03 01:18:09;;;;;;;23.93;13.40;;;20.00;99.90;;;;;;5054584;28;20443;-81
2023/10/03 01:20:40;;;;;;;25.77;13.40;;;20.00;99.90;;;;;;5055181;28;20421;-80
2023/10/03 01:23:10;;;;;;;23.70;12.60;;;20.00;99.90;;;;;;5054870;28;20437;-80
2023/10/03 01:25:41;;;;;;;30.07;13.87;;;20.10;99.90;;;;;;5055069;28;20408;-79
2023/10/03 01:28:08;;;;;;;28.10;14.30;;;20.10;99.90;;;;;;5037127;28;20421;-80
2023/10/03 01:30:36;;;;;;;27.90;14.10;;;20.10;99.90;;;;;;5051450;28;20520;-80
2023/10/03 01:33:02;;;;;;;23.13;12.90;;;20.20;99.90;;;;;;5036854;28;20452;-79
2023/10/03 01:35:28;;;;;;;25.67;12.07;;;20.20;99.90;;;;;;5055080;28;21074;-80
2023/10/03 01:37:53;;;;;;;26.17;12.70;;;20.20;99.90;;;;;;5054746;28;20517;-79
2023/10/03 01:40:20;;;;;;;23.17;12.30;;;20.20;1.00;;;;;;5054992;28;20264;-79
2023/10/03 01:42:47;;;;;;;23.53;12.13;;;20.20;1.00;;;;;;5054185;28;20190;-79
2023/10/03 01:45:17;;;;;;;20.57;10.03;;;20.20;1.00;;;;;;5054404;28;20806;-79
2023/10/03 01:47:48;;;;;;;19.00;10.97;;;20.30;1.00;;;;;;5051549;28;20578;-80
2023/10/03 01:50:14;;;;;;;23.37;11.83;;;20.30;1.00;;;;;;5035736;28;20464;-79
2023/10/03 01:52:40;;;;;;;20.10;11.00;;;20.30;1.00;;;;;;5053825;28;20842;-80
2023/10/03 01:55:08;;;;;;;21.40;10.57;;;20.30;1.00;;;;;;5054109;28;20903;-79
2023/10/03 01:57:33;;;;;;;22.00;10.03;;;20.40;1.00;;;;;;5054281;28;20574;-80
2023/10/03 01:59:59;;;;;;;23.30;9.53;;;20.40;1.00;;;;;;5036081;28;20861;-79
2023/10/03 02:02:24;;;;;;;17.73;9.90;;;20.40;1.00;;;;;;5054570;28;20185;-79
2023/10/03 02:04:50;;;;;;;22.50;9.77;;;20.50;99.90;;;;;;5051408;28;20264;-80
2023/10/03 02:07:16;;;;;;;16.60;9.07;;;20.50;99.90;;;;;;5054010;28;20536;-80
2023/10/03 02:09:43;;;;;;;20.67;9.33;;;20.60;99.90;;;;;;5053196;28;20170;-80
2023/10/03 02:12:10;;;;;;;17.30;9.27;;;20.70;99.90;;;;;;5053212;28;20979;-79
2023/10/03 02:14:37;;;;;;;20.60;9.23;;;20.80;99.90;;;;;;5053160;28;20494;-80
2023/10/03 02:17:05;;;;;;;20.60;10.10;;;20.80;99.90;;;;;;5053672;28;20499;-80
2023/10/03 02:19:31;;;;;;;18.70;10.27;;;20.90;22.50;;;;;;5050947;28;20421;-80
2023/10/03 02:21:59;;;;;;;18.20;9.83;;;21.00;1.00;;;;;;5053000;28;20593;-79
2023/10/03 02:24:25;;;;;;;17.97;9.20;;;21.10;1.00;;;;;;5053128;28;20311;-78
2023/10/03 02:26:51;;;;;;;19.03;9.10;;;21.20;1.00;;;;;;5039589;28;20433;-80
2023/10/03 02:29:17;;;;;;;16.60;9.20;;;21.30;1.00;;;;;;5035544;28;20428;-79
2023/10/03 02:31:43;;;;;;;17.33;8.73;;;21.30;1.00;;;;;;5053790;28;20468;-79
2023/10/03 02:34:09;;;;;;;16.23;8.37;;;21.40;1.00;;;;;;5053509;28;20243;-79
2023/10/03 02:36:34;;;;;;;19.47;9.57;;;21.50;1.00;;;;;;5053438;28;20504;-79
2023/10/03 02:39:00;;;;;;;18.70;9.43;;;21.60;1.00;;;;;;5050930;28;20182;-79
2023/10/03 02:41:26;;;;;;;15.30;7.70;;;21.60;1.00;;;;;;5053366;28;20209;-79
2023/10/03 02:43:51;;;;;;;20.10;9.03;;;21.70;1.00;;;;;;5053202;28;20436;-81
2023/10/03 02:46:17;;;;;;;15.77;8.47;;;21.80;1.00;;;;;;5053071;28;20251;-79
2023/10/03 02:48:43;;;;;;;21.03;9.73;;;21.90;1.00;;;;;;5053069;28;20247;-80
2023/10/03 02:51:10;;;;;;;20.20;9.43;;;22.00;1.00;;;;;;5053514;28;20680;-80
2023/10/03 02:53:35;;;;;;;17.40;8.77;;;22.00;1.00;;;;;;5053694;28;21013;-79
2023/10/03 02:56:04;;;;;;;14.03;8.10;;;22.10;1.00;;;;;;5050620;28;20523;-80
2023/10/03 02:58:29;;;;;;;19.80;9.67;;;22.20;1.00;;;;;;5053512;28;20217;-80
2023/10/03 03:00:55;;;;;;;16.10;8.90;;;22.30;99.90;;;;;;5053940;28;20412;-80
2023/10/03 03:03:32;;;;;;;15.80;8.73;;;22.30;99.90;;;;;;5053691;28;20202;-80
2023/10/03 03:06:09;;;;;;;14.67;8.47;;;22.40;99.90;;;;;;5054323;28;20416;-80
2023/10/03 03:08:38;;;;;;;15.33;8.30;;;22.40;99.90;;;;;;5036698;28;20933;-80
2023/10/03 03:11:03;;;;;;;15.67;8.77;;;22.40;99.90;;;;;;5033513;28;20467;-78
2023/10/03 03:13:31;;;;;;;15.67;8.20;;;22.40;99.90;;;;;;5053619;28;20444;-80
2023/10/03 03:16:03;;;;;;;14.70;8.70;;;22.40;99.90;;;;;;5054255;28;20184;-80
2023/10/03 03:18:40;;;;;;;16.80;8.77;;;22.50;99.90;;;;;;5054269;28;20413;-79
2023/10/03 03:21:08;;;;;;;15.90;8.97;;;22.50;99.90;;;;;;5036038;28;20482;-80
2023/10/03 03:23:39;;;;;;;15.30;8.40;;;22.50;99.90;;;;;;5036328;28;20448;-80
2023/10/03 03:26:20;;;;;;;18.50;9.73;;;22.50;99.90;;;;;;5038645;28;20467;-80
2023/10/03 03:28:49;;;;;;;16.60;8.80;;;22.50;99.90;;;;;;5055609;28;20440;-80
2023/10/03 03:31:26;;;;;;;17.50;8.90;;;22.50;99.90;;;;;;5049557;28;20463;-81
2023/10/03 03:33:56;;;;;;;15.50;8.67;;;22.50;99.90;;;;;;5040350;28;20450;-80
2023/10/03 03:36:34;;;;;;;13.03;7.40;;;22.50;99.90;;;;;;5058012;28;20421;-80
2023/10/03 03:39:05;;;;;;;16.00;8.57;;;22.40;99.90;;;;;;5040287;28;20426;-80
2023/10/03 03:41:32;;;;;;;16.07;8.60;;;22.40;99.90;;;;;;5040038;28;20864;-80
2023/10/03 03:43:59;;;;;;;18.43;8.50;;;22.40;99.90;;;;;;5057957;28;20440;-80
2023/10/03 03:46:26;;;;;;;14.60;7.70;;;22.40;99.90;;;;;;5041410;28;20440;-80
2023/10/03 03:48:52;;;;;;;15.97;8.23;;;22.40;99.90;;;;;;5057574;28;20420;-80
2023/10/03 03:51:18;;;;;;;16.63;8.40;;;22.40;99.90;;;;;;5057556;28;20471;-81
2023/10/03 03:53:44;;;;;;;16.10;8.83;;;22.30;99.90;;;;;;5057168;28;20219;-80
2023/10/03 03:56:12;;;;;;;14.53;8.67;;;22.40;99.90;;;;;;5057246;28;20423;-79
2023/10/03 03:58:44;;;;;;;15.33;8.17;;;22.40;1.00;;;;;;5040776;28;20569;-82
2023/10/03 04:01:15;;;;;;;15.40;8.93;;;22.30;1.00;;;;;;5057450;28;20420;-80
2023/10/03 04:03:42;;;;;;;16.40;7.97;;;22.30;1.00;;;;;;5054978;28;20452;-79
2023/10/03 04:06:08;;;;;;;14.60;8.47;;;22.30;1.00;;;;;;5057156;28;20431;-80
2023/10/03 04:08:35;;;;;;;12.60;6.97;;;22.30;1.00;;;;;;5056835;28;20425;-80
2023/10/03 04:11:01;;;;;;;14.90;7.80;;;22.30;1.00;;;;;;5057521;28;20941;-80
2023/10/03 04:13:26;;;;;;;13.90;7.60;;;22.30;1.00;;;;;;5038753;28;20444;-80
2023/10/03 04:15:53;;;;;;;15.33;8.60;;;22.30;1.00;;;;;;5057282;28;20498;-80
2023/10/03 04:18:19;;;;;;;19.80;8.70;;;22.30;1.00;;;;;;5055434;28;20198;-79
2023/10/03 04:20:47;;;;;;;14.23;7.53;;;22.30;1.00;;;;;;5056356;28;20452;-81
2023/10/03 04:23:14;;;;;;;18.60;9.27;;;22.30;1.00;;;;;;5056715;28;20205;-80
2023/10/03 04:25:40;;;;;;;15.63;7.13;;;22.30;1.00;;;;;;5057437;28;20423;-80
2023/10/03 04:28:06;;;;;;;17.37;9.27;;;22.30;1.00;;;;;;5056550;28;20925;-79
2023/10/03 04:30:33;;;;;;;15.90;8.90;;;22.20;1.00;;;;;;5046435;28;20210;-78
2023/10/03 04:32:58;;;;;;;12.70;8.13;;;22.20;1.00;;;;;;5037087;28;20950;-80
2023/10/03 04:35:25;;;;;;;15.53;9.50;;;22.20;1.00;;;;;;5035599;28;20475;-80
2023/10/03 04:37:52;;;;;;;17.63;8.73;;;22.10;1.00;;;;;;5038239;28;20182;-79
2023/10/03 04:40:22;;;;;;;14.40;8.40;;;22.10;1.00;;;;;;5055969;28;20507;-79
2023/10/03 04:42:53;;;;;;;17.73;9.40;;;22.00;1.00;;;;;;5038262;28;20444;-80
2023/10/03 04:45:19;;;;;;;19.23;9.90;;;22.00;1.00;;;;;;5056105;28;20447;-80
2023/10/03 04:47:49;;;;;;;15.53;8.17;;;22.00;1.00;;;;;;5055818;28;20420;-79
2023/10/03 04:50:18;;;;;;;18.03;8.70;;;21.90;1.00;;;;;;5037775;28;20491;-79
2023/10/03 04:52:49;;;;;;;15.90;9.43;;;21.90;1.00;;;;;;5035886;28;20530;-80
2023/10/03 04:55:16;;;;;;;13.63;8.53;;;21.90;1.00;;;;;;5055364;28;20456;-79
2023/10/03 04:57:46;;;;;;;17.10;8.97;;;21.80;1.00;;;;;;5055807;28;20508;-79
2023/10/03 05:00:15;;;;;;;15.83;8.97;;;21.80;1.00;;;;;;5037817;28;20435;-80
2023/10/03 05:02:46;;;;;;;21.03;9.47;;;21.80;1.00;;;;;;5055276;28;20432;-79
2023/10/03 05:05:18;;;;;;;20.00;9.27;;;21.70;1.00;;;;;;5055192;28;20933;-80
2023/10/03 05:07:44;;;;;;;15.13;7.93;;;21.70;1.00;;;;;;5055930;28;20430;-80
2023/10/03 05:10:10;;;;;;;17.03;9.93;;;21.70;1.00;;;;;;5052598;28;20464;-79
2023/10/03 05:12:35;;;;;;;17.90;9.03;;;21.70;1.00;;;;;;5036851;28;20431;-78
2023/10/03 05:15:01;;;;;;;15.50;9.03;;;21.60;4.40;;;;;;5037074;28;20503;-80
2023/10/03 05:17:27;;;;;;;14.87;8.50;;;21.60;43.40;;;;;;5055140;28;20186;-79
2023/10/03 05:19:56;;;;;;;17.00;9.00;;;21.60;86.20;;;;;;5055070;28;20216;-78
2023/10/03 05:22:23;;;;;;;14.60;8.07;;;21.60;99.90;;;;;;5054222;28;20186;-79
2023/10/03 05:24:49;;;;;;;15.77;8.00;;;21.50;99.90;;;;;;5054898;28;20418;-80
2023/10/03 05:27:16;;;;;;;16.30;9.03;;;21.50;99.90;;;;;;5051513;28;20441;-80
2023/10/03 05:29:43;;;;;;;16.93;9.40;;;21.50;99.90;;;;;;5054487;28;20413;-79
2023/10/03 05:32:09;;;;;;;16.50;9.63;;;21.40;99.90;;;;;;5054089;28;20928;-79
2023/10/03 05:34:34;;;;;;;21.47;8.40;;;21.40;99.90;;;;;;5053805;28;20527;-79
2023/10/03 05:37:00;;;;;;;16.73;9.10;;;21.30;99.90;;;;;;5054585;28;20178;-79
2023/10/03 05:39:26;;;;;;;15.03;8.50;;;21.30;99.90;;;;;;5054529;28;20182;-79
2023/10/03 05:41:56;;;;;;;15.20;8.53;;;21.30;1.00;;;;;;5054152;28;20182;-79
2023/10/03 05:44:22;;;;;;;14.93;8.13;;;21.20;1.00;;;;;;5051470;28;20834;-79
2023/10/03 05:46:53;;;;;;;14.53;7.77;;;21.20;1.00;;;;;;5054571;28;20798;-79
2023/10/03 05:49:19;;;;;;;14.50;8.13;;;21.20;1.00;;;;;;5053524;28;20420;-79
2023/10/03 05:51:44;;;;;;;16.60;9.50;;;21.20;1.00;;;;;;5035947;28;20834;-80
2023/10/03 05:54:10;;;;;;;11.33;7.40;;;21.20;25.70;;;;;;5054402;28;20447;-79
2023/10/03 05:56:35;;;;;;;17.50;9.30;;;21.20;99.90;;;;;;5054022;28;20171;-79
2023/10/03 05:59:01;;;;;;;14.60;8.13;;;21.20;99.90;;;;;;5054460;28;20190;-79
2023/10/03 06:01:27;;;;;;;14.20;7.60;;;21.20;99.90;;;;;;5051263;28;20185;-80
2023/10/03 06:03:56;;;;;;;15.37;8.50;;;21.20;99.90;;;;;;5053637;28;20559;-80
2023/10/03 06:06:22;;;;;;;17.80;9.03;;;21.20;99.90;;;;;;5054337;28;20789;-80
2023/10/03 06:08:49;;;;;;;11.80;6.97;;;21.20;99.90;;;;;;5054622;28;20423;-80
2023/10/03 06:11:15;;;;;;;15.93;8.27;;;21.20;99.90;;;;;;5054749;28;20866;-80
2023/10/03 06:13:44;;;;;;;15.10;7.90;;;21.20;99.90;;;;;;5046415;28;20495;-80
2023/10/03 06:16:12;;;;;;;13.03;7.33;;;21.10;99.90;;;;;;5051349;28;20433;-80
2023/10/03 06:18:40;;;;;;;11.90;7.73;;;21.10;99.90;;;;;;5054414;28;20416;-79
2023/10/03 06:21:07;;;;;;;12.47;7.10;;;21.10;1.00;;;;;;5054711;28;20420;-80
2023/10/03 06:23:33;;;;;;;14.50;8.23;;;21.10;1.00;;;;;;5036650;28;20436;-80
2023/10/03 06:25:59;;;;;;;12.90;6.90;;;21.10;1.00;;;;;;5054987;28;20527;-80
2023/10/03 06:28:24;;;;;;;8.83;6.37;;;21.00;1.00;;;;;;5054594;28;20420;-80
2023/10/03 06:30:53;;;;;;;14.87;7.40;;;21.00;1.00;;;;;;5050693;28;20214;-79
2023/10/03 06:33:18;;;;;;;11.47;7.20;;;20.90;1.00;;;;;;5054129;28;20202;-79
2023/10/03 06:35:44;;;;;;;13.53;7.37;;;21.00;1.00;;;;;;5036544;28;20495;-80
2023/10/03 06:38:10;;;;;;;12.47;6.40;;;20.90;1.00;;;;;;5054539;28;20181;-80
2023/10/03 06:40:36;;;;;;;15.33;6.83;;;20.90;1.00;;;;;;5054287;28;20270;-80
2023/10/03 06:43:02;;;;;;;7.60;5.60;;;20.90;1.00;;;;;;5053786;28;20446;-79
2023/10/03 06:45:27;;;;;;;7.90;5.10;;;20.90;99.90;;;;;;5053809;28;20427;-80
2023/10/03 06:47:55;;;;;;;12.13;6.00;;;20.90;99.90;;;;;;5051183;28;20190;-80
2023/10/03 06:50:23;;;;;;;9.30;4.67;;;20.90;99.90;;;;;;5053656;28;20485;-79
2023/10/03 06:52:48;;;;;;;8.03;5.53;;;20.80;99.90;;;;;;5054001;28;20937;-79
2023/10/03 06:55:15;;;;;;;11.23;4.80;;;20.70;99.90;;;;;;5054479;28;20419;-80
2023/10/03 06:57:41;;;;;;;7.90;5.43;;;20.70;99.90;;;;;;5053978;28;20182;-79
2023/10/03 07:00:13;;;;;;;8.43;4.80;;;20.70;99.90;;;;;;5057902;28;20480;-79
2023/10/03 07:02:39;;;;;;;12.60;5.33;;;20.70;99.90;;;;;;5058674;28;20198;-80
2023/10/03 07:05:05;;;;;;;9.23;5.80;;;20.70;99.90;;;;;;5055546;28;20441;-80
2023/10/03 07:07:30;;;;;;;8.13;5.10;;;20.70;99.90;;;;;;5058628;28;20413;-79
2023/10/03 07:09:56;;;;;;;8.57;5.47;;;20.70;99.90;;;;;;5058173;28;20335;-80
2023/10/03 07:12:24;;;;;;;11.33;5.70;;;20.80;99.90;;;;;;5057205;28;20181;-80
2023/10/03 07:14:50;;;;;;;10.40;6.00;;;20.90;6.90;;;;;;5039803;28;20182;-80
2023/10/03 07:17:15;;;;;;;9.10;5.67;;;21.10;1.00;;;;;;5057959;28;20601;-80
2023/10/03 07:19:41;;;;;;;13.10;5.27;;;21.20;1.00;;;;;;5058151;28;20238;-80
2023/10/03 07:22:06;;;;;;;10.00;5.57;;;21.30;1.00;;;;;;5042045;28;20261;-80
2023/10/03 07:24:32;;;;;;;11.90;4.97;;;21.50;1.00;;;;;;5055851;28;20576;-79
2023/10/03 07:27:01;;;;;;;11.73;6.23;;;21.80;99.90;;;;;;5057574;28;20618;-79
2023/10/03 07:29:27;;;;;;;12.20;6.80;;;22.10;99.90;;;;;;5038642;28;20186;-80
2023/10/03 07:31:53;;;;;;;9.30;5.30;;;22.10;99.90;;;;;;5055107;28;20470;-79
2023/10/03 07:34:18;;;;;;;8.33;4.60;;;22.30;33.50;;;;;;5056402;28;20509;-79
2023/10/03 07:36:45;;;;;;;10.33;6.10;;;22.30;1.00;;;;;;5055837;28;20188;-79
2023/10/03 07:39:11;;;;;;;10.73;5.27;;;22.40;1.00;;;;;;5053319;28;20690;-78
2023/10/03 07:41:37;;;;;;;11.17;6.40;;;22.50;1.00;;;;;;5054623;28;20420;-79
2023/10/03 07:44:04;;;;;;;10.73;6.00;;;22.90;1.00;;;;;;5056313;28;20285;-79
2023/10/03 07:46:30;;;;;;;7.97;5.33;;;23.40;1.00;;;;;;5056100;28;20424;-79
2023/10/03 07:48:56;;;;;;;9.43;5.20;;;24.20;1.00;;;;;;5056142;28;20416;-79
2023/10/03 07:51:26;;;;;;;10.03;5.00;;;24.90;1.00;;;;;;5056490;28;20675;-80
2023/10/03 07:53:52;;;;;;;10.73;5.43;;;24.50;99.90;;;;;;5036924;28;20513;-79
2023/10/03 07:56:25;;;;;;;6.40;4.43;;;24.40;1.00;;;;;;5056477;28;20470;-80
2023/10/03 07:58:54;;;;;;;8.77;4.10;;;26.60;1.00;;;;;;5056543;28;20432;-79
2023/10/03 08:01:25;;;;;;;7.73;4.77;;;27.10;99.90;;;;;;5056312;28;20857;-80
2023/10/03 08:03:56;;;;;;;9.43;5.17;;;26.60;99.90;;;;;;5055319;28;20495;-79
2023/10/03 08:06:23;;;;;;;8.20;4.90;;;25.90;99.90;;;;;;5056339;28;20421;-79
2023/10/03 08:08:52;;;;;;;7.50;4.67;;;25.00;99.90;;;;;;5038004;28;20808;-80
2023/10/03 08:11:21;;;;;;;5.67;4.57;;;24.30;99.90;;;;;;5055273;28;20475;-79
2023/10/03 08:13:49;;;;;;;10.90;4.77;;;23.80;99.90;;;;;;5043117;28;20468;-80
2023/10/03 08:16:15;;;;;;;8.80;4.87;;;23.40;1.00;;;;;;5040150;28;20432;-80
2023/10/03 08:18:46;;;;;;;7.13;4.97;;;23.10;1.00;;;;;;5057174;28;20428;-79
2023/10/03 08:21:12;;;;;;;9.23;5.57;;;22.80;1.00;;;;;;5058285;28;20424;-80
2023/10/03 08:23:38;;;;;;;7.43;4.40;;;22.70;1.00;;;;;;5057358;28;20452;-80
2023/10/03 08:26:03;;;;;;;11.53;5.23;;;22.50;1.00;;;;;;5058136;28;20508;-80
2023/10/03 08:28:32;;;;;;;7.73;5.20;;;22.30;44.80;;;;;;5035667;28;20201;-80
2023/10/03 08:31:06;;;;;;;7.63;4.60;;;22.00;99.90;;;;;;5055609;28;20197;-79
2023/10/03 08:33:36;;;;;;;8.27;4.80;;;21.90;99.90;;;;;;5056085;28;20444;-79
2023/10/03 08:36:14;;;;;;;8.20;4.70;;;21.70;99.90;;;;;;5056483;28;20420;-80
2023/10/03 08:38:43;;;;;;;7.53;4.90;;;21.60;1.00;;;;;;5056835;28;20424;-78
2023/10/03 08:41:22;;;;;;;6.80;4.50;;;21.50;1.00;;;;;;5056912;28;20420;-79
2023/10/03 08:43:54;;;;;;;8.90;4.87;;;21.50;1.00;;;;;;5054062;28;20822;-79
2023/10/03 08:46:21;;;;;;;10.70;5.17;;;21.50;1.00;;;;;;5056295;28;20460;-78
2023/10/03 08:48:47;;;;;;;6.67;5.43;;;21.50;1.00;;;;;;5056659;28;20417;-80
2023/10/03 08:51:13;;;;;;;7.93;4.63;;;21.40;1.00;;;;;;5038680;28;20482;-80
2023/10/03 08:53:40;;;;;;;9.73;4.90;;;21.50;1.00;;;;;;5057178;28;20194;-80
2023/10/03 08:56:08;;;;;;;5.40;3.77;;;21.60;1.00;;;;;;5056601;28;20178;-79
2023/10/03 08:58:34;;;;;;;7.13;4.60;;;21.70;1.00;;;;;;5056355;28;20858;-80
2023/10/03 09:01:02;;;;;;;5.33;4.60;;;21.80;1.00;;;;;;5053056;28;20420;-79
2023/10/03 09:03:48;;;;;;;7.43;4.50;;;21.80;1.00;;;;;;5055634;28;20703;-80
2023/10/03 09:06:20;;;;;;;7.70;4.80;;;21.80;1.00;;;;;;5055736;28;20423;-80
2023/10/03 09:09:10;;;;;;;7.23;4.03;;;21.90;1.00;;;;;;5052313;28;20436;-79
2023/10/03 09:11:39;;;;;;;7.07;4.40;;;22.00;99.90;;;;;;5055974;28;20929;-80
2023/10/03 09:14:05;;;;;;;6.87;4.17;;;22.30;99.90;;;;;;5056462;28;20462;-79
2023/10/03 09:16:38;;;;;;;8.13;4.50;;;22.40;99.90;;;;;;5056223;28;20456;-78
2023/10/03 09:19:04;;;;;;;5.27;4.70;;;22.50;69.70;;;;;;5057739;28;20427;-81
2023/10/03 09:21:30;;;;;;;8.20;4.47;;;22.30;84.20;;;;;;5058235;28;20435;-80
2023/10/03 09:24:01;;;;;;;8.77;4.50;;;22.20;99.90;;;;;;5053761;28;20827;-80
2023/10/03 09:26:45;;;;;;;8.33;4.47;;;22.10;99.90;;;;;;5058383;28;20190;-81
2023/10/03 09:29:29;;;;;;;6.93;4.87;;;22.10;99.90;;;;;;5058606;28;20562;-81
2023/10/03 09:32:12;;;;;;;8.17;5.33;;;22.10;99.90;;;;;;5057393;28;20476;-81
2023/10/03 09:34:41;;;;;;;6.50;4.97;;;22.20;99.90;;;;;;5058346;28;20437;-80
2023/10/03 09:37:07;;;;;;;8.10;4.67;;;22.40;99.90;;;;;;5057828;28;20431;-81
2023/10/03 09:39:48;;;;;;;9.37;4.40;;;22.80;99.90;;;;;;5058195;28;20478;-80
2023/10/03 09:42:18;;;;;;;8.97;5.13;;;22.80;1.00;;;;;;5054929;28;20464;-80
2023/10/03 09:44:45;;;;;;;8.53;4.80;;;22.70;2.80;;;;;;5039727;28;20443;-81
2023/10/03 09:47:13;;;;;;;7.90;5.10;;;22.70;1.00;;;;;;5058049;28;20454;-80
2023/10/03 09:49:39;;;;;;;8.07;5.43;;;22.60;1.00;;;;;;5058526;28;20810;-82
2023/10/03 09:52:22;;;;;;;5.90;4.80;;;22.60;5.90;;;;;;5057199;28;20468;-80
2023/10/03 09:54:54;;;;;;;5.50;4.70;;;22.50;1.00;;;;;;5057679;28;20412;-81
2023/10/03 09:57:21;;;;;;;7.97;4.90;;;22.40;1.00;;;;;;5054522;28;20444;-81
2023/10/03 09:59:49;;;;;;;6.33;4.23;;;22.40;1.00;;;;;;5057153;28;20433;-81
2023/10/03 10:02:30;;;;;;;7.83;4.70;;;22.40;1.00;;;;;;5057164;28;20503;-81
2023/10/03 10:05:02;;;;;;;7.40;5.00;;;22.40;1.00;;;;;;5057289;28;20799;-81
2023/10/03 10:07:34;;;;;;;7.77;5.10;;;22.30;2.60;;;;;;5057533;28;20424;-80
2023/10/03 10:10:09;;;;;;;7.27;5.37;;;22.30;37.60;;;;;;5059430;28;20439;-80
2023/10/03 10:12:37;;;;;;;5.63;4.40;;;22.20;99.90;;;;;;5057655;28;20428;-80
2023/10/03 10:17:41;;;;;;;5.50;4.23;;;21.90;99.90;;;;;;5054351;28;20456;-80
2023/10/03 10:20:09;;;;;;;8.47;5.57;;;21.70;1.00;;;;;;5034633;28;20809;-80
2023/10/03 10:23:01;;;;;;;10.10;6.37;;;21.10;99.90;;;;;;5055696;28;20423;-81
2023/10/03 10:25:29;;;;;;;15.37;6.53;;;20.50;1.00;;;;;;5055376;28;20436;-80
2023/10/03 10:28:05;;;;;;;10.80;6.03;;;20.10;1.00;;;;;;5055259;28;20440;-81
2023/10/03 10:30:34;;;;;;;12.20;6.67;;;19.70;1.00;;;;;;5037762;28;20470;-80
2023/10/03 10:33:18;;;;;;;11.03;6.60;;;19.50;94.80;;;;;;5053149;28;20468;-81
2023/10/03 10:35:56;;;;;;;9.60;6.60;;;19.40;99.90;;;;;;5055616;28;20416;-81
2023/10/03 10:38:42;;;;;;;12.90;6.23;;;19.30;99.90;;;;;;5056041;28;20400;-80
2023/10/03 10:41:26;;;;;;;9.27;6.80;;;19.30;99.90;;;;;;5038062;28;20996;-80
2023/10/03 10:44:21;;;;;;;9.00;5.97;;;19.40;99.90;;;;;;5036596;28;20434;-80
2023/10/03 10:46:49;;;;;;;11.67;7.27;;;19.60;99.90;;;;;;5053478;28;20431;-80
2023/10/03 10:49:30;;;;;;;9.97;5.47;;;19.80;99.90;;;;;;5049705;28;20783;-79
2023/10/03 10:51:59;;;;;;;7.53;5.70;;;20.20;1.00;;;;;;5036325;28;20467;-79
2023/10/03 10:54:25;;;;;;;7.83;6.00;;;20.50;99.90;;;;;;5055217;28;20432;-81
2023/10/03 10:57:01;;;;;;;7.03;5.50;;;20.70;99.90;;;;;;5053844;28;21008;-81
2023/10/03 10:59:27;;;;;;;9.80;6.43;;;21.00;99.90;;;;;;5053969;28;20417;-80
2023/10/03 11:01:53;;;;;;;11.23;5.80;;;21.10;99.90;;;;;;5053827;28;20412;-80
2023/10/03 11:04:27;;;;;;;8.80;5.40;;;21.20;1.00;;;;;;5053698;28;21045;-80
2023/10/03 11:06:52;;;;;;;8.13;6.20;;;21.20;1.00;;;;;;5051358;28;20182;-79
2023/10/03 11:09:23;;;;;;;8.23;5.67;;;21.20;1.00;;;;;;5037759;28;20782;-80
2023/10/03 11:11:51;;;;;;;10.63;5.30;;;21.30;99.90;;;;;;5054910;28;20223;-81
2023/10/03 11:14:28;;;;;;;6.20;5.30;;;21.20;1.00;;;;;;5054963;28;20441;-81
2023/10/03 11:16:55;;;;;;;7.17;5.13;;;20.90;1.00;;;;;;5053493;28;20467;-80
2023/10/03 11:19:21;;;;;;;9.40;6.57;;;20.70;1.00;;;;;;5054416;28;20416;-81
2023/10/03 11:21:48;;;;;;;12.93;5.67;;;20.50;1.00;;;;;;5034339;28;20789;-81
2023/10/03 11:24:15;;;;;;;8.67;4.37;;;20.40;1.00;;;;;;5053606;28;20437;-80
2023/10/03 11:26:46;;;;;;;5.20;4.10;;;20.40;99.90;;;;;;5039786;28;20467;-81
2023/10/03 11:29:14;;;;;;;3.93;3.30;;;20.50;99.90;;;;;;5046040;28;20431;-80
2023/10/03 11:31:41;;;;;;;4.63;2.60;;;20.70;1.00;;;;;;5054160;28;21006;-81
2023/10/03 11:34:07;;;;;;;5.77;2.43;;;20.90;99.90;;;;;;5053475;28;20466;-79
2023/10/03 11:36:45;;;;;;;2.60;1.60;;;21.00;1.00;;;;;;5055165;28;20466;-81
2023/10/03 11:39:18;;;;;;;1.80;1.20;;;20.80;99.90;;;;;;5035013;28;20530;-80
2023/10/03 11:41:44;;;;;;;3.83;1.53;;;20.80;1.00;;;;;;5041935;28;20432;-81
2023/10/03 11:44:19;;;;;;;4.93;1.27;;;20.70;1.00;;;;;;5058242;28;20459;-81
2023/10/03 11:46:46;;;;;;;2.53;1.10;;;20.40;1.00;;;;;;5057812;28;20968;-82
2023/10/03 11:49:13;;;;;;;3.80;1.30;;;20.10;99.90;;;;;;5060056;28;20422;-81
2023/10/03 11:51:42;;;;;;;2.40;1.10;;;19.80;1.00;;;;;;5041964;28;20464;-81
2023/10/03 11:54:08;;;;;;;2.83;1.20;;;19.70;1.00;;;;;;5060042;28;20475;-81
2023/10/03 11:56:42;;;;;;;4.90;1.20;;;19.60;99.90;;;;;;5059946;28;20409;-81
2023/10/03 11:59:08;;;;;;;3.90;1.10;;;19.60;1.00;;;;;;5056515;28;20190;-81
2023/10/03 12:01:35;;;;;;;5.63;0.90;;;19.50;1.00;;;;;;5041663;28;20442;-80
2023/10/03 12:04:01;;;;;;;1.83;0.90;;;19.40;99.90;;;;;;5059074;28;20440;-81
2023/10/03 12:06:26;;;;;;;2.90;0.70;;;19.30;1.00;;;;;;5059544;28;20417;-81
2023/10/03 12:08:52;;;;;;;2.10;0.93;;;19.10;1.00;;;;;;5059596;28;20408;-81
2023/10/03 12:11:19;;;;;;;4.23;1.10;;;19.00;99.90;;;;;;5041560;28;20202;-80
2023/10/03 12:13:45;;;;;;;2.40;1.00;;;19.10;1.00;;;;;;5059144;28;20197;-83
2023/10/03 12:16:10;;;;;;;1.83;0.87;;;19.10;1.00;;;;;;5056052;28;20436;-82
2023/10/03 12:18:37;;;;;;;3.30;1.10;;;19.10;1.00;;;;;;5059147;28;20189;-81
2023/10/03 12:21:04;;;;;;;1.73;1.17;;;19.00;90.20;;;;;;5058480;28;20184;-81
2023/10/03 12:23:29;;;;;;;3.70;1.03;;;19.00;78.00;;;;;;5059453;28;20473;-81
2023/10/03 12:25:56;;;;;;;1.37;0.83;;;19.00;1.00;;;;;;5059323;28;20949;-81
2023/10/03 12:28:22;;;;;;;2.57;1.10;;;19.00;99.90;;;;;;5059511;28;20285;-80
2023/10/03 12:30:50;;;;;;;1.67;0.80;;;19.20;1.00;;;;;;5058350;28;20905;-80
2023/10/03 12:33:16;;;;;;;1.93;0.93;;;19.50;1.00;;;;;;5044105;28;20201;-81
2023/10/03 12:35:42;;;;;;;1.50;1.00;;;19.80;99.90;;;;;;5059115;28;20408;-82
2023/10/03 12:38:10;;;;;;;3.30;1.20;;;20.40;1.00;;;;;;5041313;28;20467;-82
2023/10/03 12:40:36;;;;;;;1.90;0.90;;;21.30;80.60;;;;;;5059450;28;20185;-82
2023/10/03 12:43:01;;;;;;;2.60;1.20;;;22.60;1.00;;;;;;5058789;28;20444;-82
2023/10/03 12:45:28;;;;;;;2.87;1.50;;;23.30;1.00;;;;;;5059414;28;20197;-81
2023/10/03 12:47:54;;;;;;;1.77;1.00;;;23.70;99.90;;;;;;5057041;28;20177;-82
2023/10/03 12:50:21;;;;;;;21.33;15.80;;;23.80;99.90;;;;;;5059118;28;20516;-82
2023/10/03 12:52:49;;;;;;;5.00;3.53;;;23.70;99.90;;;;;;5041407;28;20231;-81
2023/10/03 12:55:18;;;;;;;2.13;1.60;;;23.30;99.90;;;;;;5058450;28;20408;-82